sensor_id;sensor_type;location;lat;lon;timestamp;pressure;altitude;pressure_sealevel;temperature;humidity
70745;BME280;59284;31.390;34.904;2022-12-29T00:02:16;63992.69;;;-141.38;100.00
70745;BME280;59284;31.390;34.904;2022-12-29T00:04:42;63992.69;;;-141.38;100.00
70745;BME280;59284;31.390;34.904;2022-12-29T00:07:08;63992.69;;;-141.38;100.00
70745;BME280;59284;31.390;34.904;2022-12-29T00:09:34;63992.69;;;-141.38;100.00
70745;BME280;59284;31.390;34.904;2022-12-29T00:12:02;63992.69;;;-141.38;100.00
70745;BME280;59284;31.390;34.904;2022-12-29T00:14:28;63992.69;;;-141.38;100.00
70745;BME280;59284;31.390;34.904;2022-12-29T00:17:12;63992.69;;;-141.38;100.00
70745;BME280;59284;31.390;34.904;2022-12-29T00:19:38;63992.69;;;-141.38;100.00
70745;BME280;59284;31.390;34.904;2022-12-29T00:22:23;63992.69;;;-141.38;100.00
70745;BME280;59284;31.390;34.904;2022-12-29T00:25:10;63992.69;;;-141.38;100.00
70745;BME280;59284;31.390;34.904;2022-12-29T00:27:54;63992.69;;;-141.38;100.00
70745;BME280;59284;31.390;34.904;2022-12-29T00:30:39;63992.69;;;-141.38;100.00
70745;BME280;59284;31.390;34.904;2022-12-29T00:33:28;63992.69;;;-141.38;100.00
70745;BME280;59284;31.390;34.904;2022-12-29T00:36:25;63992.69;;;-141.38;100.00
70745;BME280;59284;31.390;34.904;2022-12-29T00:38:59;63992.69;;;-141.38;100.00
70745;BME280;59284;31.390;34.904;2022-12-29T00:41:44;63992.69;;;-141.38;100.00
70745;BME280;59284;31.390;34.904;2022-12-29T00:44:28;63992.69;;;-141.38;100.00
70745;BME280;59284;31.390;34.904;2022-12-29T00:46:54;63992.69;;;-141.38;100.00
70745;BME280;59284;31.390;34.904;2022-12-29T00:49:20;63992.69;;;-141.38;100.00
70745;BME280;59284;31.390;34.904;2022-12-29T00:52:04;63992.69;;;-141.38;100.00
70745;BME280;59284;31.390;34.904;2022-12-29T00:54:32;63992.69;;;-141.38;100.00
70745;BME280;59284;31.390;34.904;2022-12-29T00:56:58;63992.69;;;-141.38;100.00
70745;BME280;59284;31.390;34.904;2022-12-29T00:59:24;63992.69;;;-141.38;100.00
70745;BME280;59284;31.390;34.904;2022-12-29T01:01:51;63992.69;;;-141.38;100.00
70745;BME280;59284;31.390;34.904;2022-12-29T01:04:18;63992.69;;;-141.38;100.00
70745;BME280;59284;31.390;34.904;2022-12-29T01:06:44;63992.69;;;-141.38;100.00
70745;BME280;59284;31.390;34.904;2022-12-29T01:09:10;63992.69;;;-141.38;100.00
70745;BME280;59284;31.390;34.904;2022-12-29T01:11:54;63992.69;;;-141.38;100.00
70745;BME280;59284;31.390;34.904;2022-12-29T01:14:22;63992.69;;;-141.38;100.00
70745;BME280;59284;31.390;34.904;2022-12-29T01:16:48;63992.69;;;-141.38;100.00
70745;BME280;59284;31.390;34.904;2022-12-29T01:19:15;63992.69;;;-141.38;100.00
70745;BME280;59284;31.390;34.904;2022-12-29T01:21:41;63992.69;;;-141.38;100.00
70745;BME280;59284;31.390;34.904;2022-12-29T01:24:06;63992.69;;;-141.38;100.00
70745;BME280;59284;31.390;34.904;2022-12-29T01:26:32;63992.69;;;-141.38;100.00
70745;BME280;59284;31.390;34.904;2022-12-29T01:28:58;63992.69;;;-141.38;100.00
70745;BME280;59284;31.390;34.904;2022-12-29T01:31:23;63992.69;;;-141.38;100.00
70745;BME280;59284;31.390;34.904;2022-12-29T01:33:49;63992.69;;;-141.38;100.00
70745;BME280;59284;31.390;34.904;2022-12-29T01:36:18;63992.69;;;-141.38;100.00
70745;BME280;59284;31.390;34.904;2022-12-29T01:38:44;63992.69;;;-141.38;100.00
70745;BME280;59284;31.390;34.904;2022-12-29T01:41:11;63992.69;;;-141.38;100.00
70745;BME280;59284;31.390;34.904;2022-12-29T01:43:43;63992.69;;;-141.38;100.00
70745;BME280;59284;31.390;34.904;2022-12-29T01:46:39;63992.69;;;-141.38;100.00
70745;BME280;59284;31.390;34.904;2022-12-29T01:49:10;63992.69;;;-141.38;100.00
70745;BME280;59284;31.390;34.904;2022-12-29T01:51:58;63992.69;;;-141.38;100.00
70745;BME280;59284;31.390;34.904;2022-12-29T01:54:34;63992.69;;;-141.38;100.00
70745;BME280;59284;31.390;34.904;2022-12-29T01:57:06;63992.69;;;-141.38;100.00
70745;BME280;59284;31.390;34.904;2022-12-29T01:59:39;63992.69;;;-141.38;100.00
70745;BME280;59284;31.390;34.904;2022-12-29T02:02:06;63992.69;;;-141.38;100.00
70745;BME280;59284;31.390;34.904;2022-12-29T02:04:33;63992.69;;;-141.38;100.00
70745;BME280;59284;31.390;34.904;2022-12-29T03:26:45;93991.78;;;11.87;100.00
70745;BME280;59284;31.390;34.904;2022-12-29T03:29:13;94002.22;;;11.78;100.00
70745;BME280;59284;31.390;34.904;2022-12-29T03:31:42;94016.06;;;11.91;100.00
70745;BME280;59284;31.390;34.904;2022-12-29T03:34:08;94033.34;;;11.49;100.00
70745;BME280;59284;31.390;34.904;2022-12-29T03:36:51;94055.75;;;11.62;100.00
70745;BME280;59284;31.390;34.904;2022-12-29T03:39:20;94079.06;;;11.33;100.00
70745;BME280;59284;31.390;34.904;2022-12-29T03:41:50;94086.66;;;11.47;100.00
70745;BME280;59284;31.390;34.904;2022-12-29T03:44:19;94106.41;;;11.30;100.00
70745;BME280;59284;31.390;34.904;2022-12-29T03:46:50;94114.31;;;11.43;100.00
70745;BME280;59284;31.390;34.904;2022-12-29T03:49:19;94122.66;;;11.65;100.00
70745;BME280;59284;31.390;34.904;2022-12-29T03:51:44;94132.34;;;11.48;100.00
70745;BME280;59284;31.390;34.904;2022-12-29T03:54:10;94136.47;;;11.57;100.00
70745;BME280;59284;31.390;34.904;2022-12-29T03:56:36;94141.63;;;11.66;100.00
70745;BME280;59284;31.390;34.904;2022-12-29T03:59:01;94144.72;;;11.51;100.00
70745;BME280;59284;31.390;34.904;2022-12-29T04:01:27;94156.78;;;11.55;100.00
70745;BME280;59284;31.390;34.904;2022-12-29T04:03:53;94174.97;;;11.38;100.00
70745;BME280;59284;31.390;34.904;2022-12-29T04:06:18;94186.44;;;11.71;100.00
70745;BME280;59284;31.390;34.904;2022-12-29T04:08:44;94187.47;;;11.62;100.00
70745;BME280;59284;31.390;34.904;2022-12-29T04:11:10;94201.13;;;11.42;100.00
70745;BME280;59284;31.390;34.904;2022-12-29T04:13:35;94217.28;;;11.64;100.00
70745;BME280;59284;31.390;34.904;2022-12-29T04:16:01;94235.03;;;11.37;100.00
70745;BME280;59284;31.390;34.904;2022-12-29T04:18:27;94246.50;;;11.44;100.00
70745;BME280;59284;31.390;34.904;2022-12-29T04:20:52;94242.81;;;11.28;100.00
70745;BME280;59284;31.390;34.904;2022-12-29T04:23:30;94254.72;;;11.38;100.00
70745;BME280;59284;31.390;34.904;2022-12-29T04:25:57;94258.84;;;11.39;100.00
70745;BME280;59284;31.390;34.904;2022-12-29T04:28:23;94264.97;;;11.43;100.00
70745;BME280;59284;31.390;34.904;2022-12-29T04:30:49;94263.31;;;11.81;100.00
70745;BME280;59284;31.390;34.904;2022-12-29T04:33:16;94268.03;;;11.70;100.00
70745;BME280;59284;31.390;34.904;2022-12-29T04:35:42;94274.44;;;11.64;100.00
70745;BME280;59284;31.390;34.904;2022-12-29T04:38:09;94280.69;;;11.55;100.00
70745;BME280;59284;31.390;34.904;2022-12-29T04:40:34;94288.97;;;11.48;100.00
70745;BME280;59284;31.390;34.904;2022-12-29T04:43:00;94299.81;;;11.50;100.00
70745;BME280;59284;31.390;34.904;2022-12-29T04:45:26;94307.88;;;11.40;100.00
70745;BME280;59284;31.390;34.904;2022-12-29T04:47:51;94322.25;;;11.55;100.00
70745;BME280;59284;31.390;34.904;2022-12-29T04:50:17;94320.63;;;11.76;100.00
70745;BME280;59284;31.390;34.904;2022-12-29T04:52:43;94317.84;;;11.64;100.00
70745;BME280;59284;31.390;34.904;2022-12-29T04:55:09;94329.78;;;11.82;100.00
70745;BME280;59284;31.390;34.904;2022-12-29T04:57:35;94328.41;;;11.76;100.00
70745;BME280;59284;31.390;34.904;2022-12-29T05:00:01;94328.53;;;11.88;100.00
70745;BME280;59284;31.390;34.904;2022-12-29T05:02:27;94317.88;;;11.81;100.00
70745;BME280;59284;31.390;34.904;2022-12-29T05:04:52;94327.00;;;12.04;100.00
70745;BME280;59284;31.390;34.904;2022-12-29T05:07:18;94323.66;;;12.04;100.00
70745;BME280;59284;31.390;34.904;2022-12-29T05:09:44;94327.34;;;11.85;100.00
70745;BME280;59284;31.390;34.904;2022-12-29T05:12:10;94333.44;;;12.15;100.00
70745;BME280;59284;31.390;34.904;2022-12-29T05:14:38;94330.84;;;12.15;100.00
70745;BME280;59284;31.390;34.904;2022-12-29T05:17:04;94332.34;;;12.25;100.00
70745;BME280;59284;31.390;34.904;2022-12-29T05:19:33;94323.31;;;12.77;100.00
70745;BME280;59284;31.390;34.904;2022-12-29T05:22:01;94314.56;;;12.82;100.00
70745;BME280;59284;31.390;34.904;2022-12-29T05:24:26;94311.06;;;12.69;100.00
70745;BME280;59284;31.390;34.904;2022-12-29T05:26:52;94312.75;;;12.74;100.00
70745;BME280;59284;31.390;34.904;2022-12-29T05:29:18;94316.50;;;12.85;100.00
70745;BME280;59284;31.390;34.904;2022-12-29T05:31:44;94312.28;;;12.72;100.00
70745;BME280;59284;31.390;34.904;2022-12-29T05:34:11;94302.88;;;13.25;100.00
70745;BME280;59284;31.390;34.904;2022-12-29T05:36:36;94294.09;;;13.09;100.00
70745;BME280;59284;31.390;34.904;2022-12-29T05:39:03;94282.09;;;13.38;100.00
70745;BME280;59284;31.390;34.904;2022-12-29T05:41:28;94272.47;;;13.71;100.00
70745;BME280;59284;31.390;34.904;2022-12-29T05:43:54;94266.25;;;13.43;100.00
70745;BME280;59284;31.390;34.904;2022-12-29T05:46:20;94268.88;;;13.43;100.00
70745;BME280;59284;31.390;34.904;2022-12-29T05:48:46;94254.91;;;13.80;100.00
70745;BME280;59284;31.390;34.904;2022-12-29T05:51:12;94141.00;;;14.04;100.00
70745;BME280;59284;31.390;34.904;2022-12-29T05:53:37;94032.44;;;14.12;100.00
70745;BME280;59284;31.390;34.904;2022-12-29T05:56:03;94035.06;;;14.12;100.00
70745;BME280;59284;31.390;34.904;2022-12-29T05:58:32;94067.84;;;14.49;100.00
70745;BME280;59284;31.390;34.904;2022-12-29T06:00:58;94135.19;;;14.32;100.00
70745;BME280;59284;31.390;34.904;2022-12-29T06:03:24;94152.09;;;14.74;100.00
70745;BME280;59284;31.390;34.904;2022-12-29T06:05:49;94178.75;;;14.92;100.00
70745;BME280;59284;31.390;34.904;2022-12-29T06:08:15;94200.63;;;14.75;100.00
70745;BME280;59284;31.390;34.904;2022-12-29T06:10:41;94214.09;;;14.77;100.00
70745;BME280;59284;31.390;34.904;2022-12-29T06:13:07;94213.75;;;15.42;100.00
70745;BME280;59284;31.390;34.904;2022-12-29T06:15:33;94193.69;;;15.19;100.00
70745;BME280;59284;31.390;34.904;2022-12-29T06:17:59;94095.59;;;15.21;100.00
70745;BME280;59284;31.390;34.904;2022-12-29T06:20:25;94066.75;;;15.18;100.00
70745;BME280;59284;31.390;34.904;2022-12-29T06:22:51;94072.56;;;15.70;100.00
70745;BME280;59284;31.390;34.904;2022-12-29T06:25:17;94066.34;;;15.31;100.00
70745;BME280;59284;31.390;34.904;2022-12-29T06:27:43;94131.50;;;15.52;100.00
70745;BME280;59284;31.390;34.904;2022-12-29T06:30:09;94610.31;;;15.87;100.00
70745;BME280;59284;31.390;34.904;2022-12-29T06:32:35;95428.09;;;15.79;100.00
70745;BME280;59284;31.390;34.904;2022-12-29T06:35:02;95667.03;;;16.45;100.00
70745;BME280;59284;31.390;34.904;2022-12-29T06:37:28;95717.63;;;15.70;100.00
70745;BME280;59284;31.390;34.904;2022-12-29T06:39:54;95746.03;;;16.07;100.00
70745;BME280;59284;31.390;34.904;2022-12-29T06:42:21;95774.38;;;16.36;100.00
70745;BME280;59284;31.390;34.904;2022-12-29T06:44:46;95796.78;;;15.98;100.00
70745;BME280;59284;31.390;34.904;2022-12-29T06:47:12;95820.47;;;16.99;100.00
70745;BME280;59284;31.390;34.904;2022-12-29T06:49:38;95830.25;;;17.24;100.00
70745;BME280;59284;31.390;34.904;2022-12-29T06:52:04;95843.63;;;17.05;100.00
70745;BME280;59284;31.390;34.904;2022-12-29T06:54:30;95849.69;;;17.23;100.00
70745;BME280;59284;31.390;34.904;2022-12-29T06:56:56;95865.88;;;16.85;100.00
70745;BME280;59284;31.390;34.904;2022-12-29T06:59:22;95870.16;;;17.12;100.00
70745;BME280;59284;31.390;34.904;2022-12-29T07:01:48;95882.25;;;17.22;100.00
70745;BME280;59284;31.390;34.904;2022-12-29T07:04:14;95880.56;;;16.95;100.00
70745;BME280;59284;31.390;34.904;2022-12-29T07:06:39;95904.97;;;17.35;100.00
70745;BME280;59284;31.390;34.904;2022-12-29T07:09:07;95919.16;;;19.77;100.00
70745;BME280;59284;31.390;34.904;2022-12-29T07:11:33;95929.31;;;21.84;100.00
70745;BME280;59284;31.390;34.904;2022-12-29T07:13:59;95938.84;;;21.52;100.00
70745;BME280;59284;31.390;34.904;2022-12-29T07:16:25;95945.34;;;21.54;100.00
70745;BME280;59284;31.390;34.904;2022-12-29T07:18:51;95944.44;;;22.11;100.00
70745;BME280;59284;31.390;34.904;2022-12-29T07:21:17;95950.78;;;23.01;100.00
70745;BME280;59284;31.390;34.904;2022-12-29T07:23:43;95949.63;;;23.77;100.00
70745;BME280;59284;31.390;34.904;2022-12-29T07:26:12;95952.44;;;23.22;100.00
70745;BME280;59284;31.390;34.904;2022-12-29T07:28:38;95956.56;;;22.52;100.00
70745;BME280;59284;31.390;34.904;2022-12-29T07:31:15;95949.50;;;20.66;100.00
70745;BME280;59284;31.390;34.904;2022-12-29T07:33:42;95947.22;;;20.23;100.00
70745;BME280;59284;31.390;34.904;2022-12-29T07:36:09;95945.66;;;19.26;100.00
70745;BME280;59284;31.390;34.904;2022-12-29T07:38:34;95934.19;;;19.39;100.00
70745;BME280;59284;31.390;34.904;2022-12-29T07:41:00;95932.81;;;18.61;100.00
70745;BME280;59284;31.390;34.904;2022-12-29T07:43:26;95934.28;;;19.05;100.00
70745;BME280;59284;31.390;34.904;2022-12-29T07:45:51;95928.59;;;19.32;100.00
70745;BME280;59284;31.390;34.904;2022-12-29T07:48:17;95937.63;;;19.22;100.00
70745;BME280;59284;31.390;34.904;2022-12-29T07:50:43;95937.03;;;20.54;100.00
70745;BME280;59284;31.390;34.904;2022-12-29T07:53:08;95927.78;;;23.49;100.00
70745;BME280;59284;31.390;34.904;2022-12-29T07:55:34;95942.00;;;25.93;100.00
70745;BME280;59284;31.390;34.904;2022-12-29T07:58:00;95939.28;;;24.76;100.00
70745;BME280;59284;31.390;34.904;2022-12-29T08:00:26;95943.63;;;26.57;100.00
70745;BME280;59284;31.390;34.904;2022-12-29T08:02:51;95935.78;;;28.50;100.00
70745;BME280;59284;31.390;34.904;2022-12-29T08:05:17;95942.28;;;27.91;100.00
70745;BME280;59284;31.390;34.904;2022-12-29T08:07:44;95946.97;;;27.17;100.00
70745;BME280;59284;31.390;34.904;2022-12-29T08:10:11;95942.09;;;27.26;100.00
70745;BME280;59284;31.390;34.904;2022-12-29T08:12:40;95937.50;;;28.14;100.00
70745;BME280;59284;31.390;34.904;2022-12-29T08:15:08;95937.13;;;29.09;100.00
70745;BME280;59284;31.390;34.904;2022-12-29T08:17:34;95937.25;;;27.35;100.00
70745;BME280;59284;31.390;34.904;2022-12-29T08:19:59;95940.50;;;28.09;100.00
70745;BME280;59284;31.390;34.904;2022-12-29T08:22:26;95937.28;;;27.86;100.00
70745;BME280;59284;31.390;34.904;2022-12-29T08:24:51;95929.56;;;28.32;100.00
70745;BME280;59284;31.390;34.904;2022-12-29T08:27:18;95934.75;;;28.00;100.00
70745;BME280;59284;31.390;34.904;2022-12-29T08:29:43;95930.63;;;29.10;100.00
70745;BME280;59284;31.390;34.904;2022-12-29T08:32:10;95928.34;;;29.08;100.00
70745;BME280;59284;31.390;34.904;2022-12-29T08:34:35;95924.56;;;29.34;100.00
70745;BME280;59284;31.390;34.904;2022-12-29T08:37:01;95923.03;;;29.61;100.00
70745;BME280;59284;31.390;34.904;2022-12-29T08:39:27;95911.19;;;29.45;100.00
70745;BME280;59284;31.390;34.904;2022-12-29T08:41:53;95909.91;;;30.55;100.00
70745;BME280;59284;31.390;34.904;2022-12-29T08:44:18;95908.44;;;30.33;100.00
70745;BME280;59284;31.390;34.904;2022-12-29T08:46:44;95904.72;;;29.46;100.00
70745;BME280;59284;31.390;34.904;2022-12-29T08:49:10;95905.50;;;29.53;100.00
70745;BME280;59284;31.390;34.904;2022-12-29T08:51:35;95905.09;;;29.65;100.00
70745;BME280;59284;31.390;34.904;2022-12-29T08:54:01;95897.91;;;30.77;100.00
70745;BME280;59284;31.390;34.904;2022-12-29T08:56:27;95896.84;;;30.64;100.00
70745;BME280;59284;31.390;34.904;2022-12-29T08:58:53;95896.16;;;31.18;100.00
70745;BME280;59284;31.390;34.904;2022-12-29T09:01:19;95879.63;;;32.12;100.00
70745;BME280;59284;31.390;34.904;2022-12-29T09:03:45;95883.84;;;32.13;100.00
70745;BME280;59284;31.390;34.904;2022-12-29T09:06:11;95881.38;;;31.48;100.00
70745;BME280;59284;31.390;34.904;2022-12-29T09:08:36;95876.19;;;32.42;100.00
70745;BME280;59284;31.390;34.904;2022-12-29T09:11:27;95874.53;;;32.21;100.00
70745;BME280;59284;31.390;34.904;2022-12-29T09:13:53;95876.75;;;31.92;100.00
70745;BME280;59284;31.390;34.904;2022-12-29T09:16:21;95870.91;;;32.05;100.00
70745;BME280;59284;31.390;34.904;2022-12-29T09:18:47;95868.72;;;32.60;100.00
70745;BME280;59284;31.390;34.904;2022-12-29T09:21:12;95859.25;;;33.55;100.00
70745;BME280;59284;31.390;34.904;2022-12-29T09:23:38;95856.00;;;32.64;100.00
70745;BME280;59284;31.390;34.904;2022-12-29T09:26:05;95852.72;;;34.19;100.00
70745;BME280;59284;31.390;34.904;2022-12-29T09:28:33;95857.00;;;32.43;100.00
70745;BME280;59284;31.390;34.904;2022-12-29T09:30:59;95840.44;;;34.73;100.00
70745;BME280;59284;31.390;34.904;2022-12-29T09:33:25;95847.75;;;33.05;100.00
70745;BME280;59284;31.390;34.904;2022-12-29T09:35:57;95842.91;;;34.09;100.00
70745;BME280;59284;31.390;34.904;2022-12-29T09:38:24;95853.84;;;29.99;100.00
70745;BME280;59284;31.390;34.904;2022-12-29T09:40:52;95851.28;;;30.71;100.00
70745;BME280;59284;31.390;34.904;2022-12-29T09:43:43;95831.47;;;34.01;100.00
70745;BME280;59284;31.390;34.904;2022-12-29T09:46:28;95833.34;;;34.24;100.00
70745;BME280;59284;31.390;34.904;2022-12-29T09:51:42;95830.44;;;34.54;100.00
70745;BME280;59284;31.390;34.904;2022-12-29T09:57:02;95806.19;;;35.67;100.00
70745;BME280;59284;31.390;34.904;2022-12-29T09:59:39;95799.59;;;36.25;100.00
70745;BME280;59284;31.390;34.904;2022-12-29T10:02:32;95799.31;;;36.48;100.00
70745;BME280;59284;31.390;34.904;2022-12-29T10:05:01;95816.66;;;30.29;100.00
70745;BME280;59284;31.390;34.904;2022-12-29T10:07:33;95815.75;;;29.31;100.00
70745;BME280;59284;31.390;34.904;2022-12-29T10:13:16;95799.81;;;33.46;100.00
70745;BME280;59284;31.390;34.904;2022-12-29T10:15:57;95786.03;;;35.10;100.00
70745;BME280;59284;31.390;34.904;2022-12-29T10:23:52;95778.59;;;36.04;100.00
70745;BME280;59284;31.390;34.904;2022-12-29T10:26:21;95783.06;;;34.37;100.00
70745;BME280;59284;31.390;34.904;2022-12-29T10:28:51;95789.84;;;35.58;100.00
70745;BME280;59284;31.390;34.904;2022-12-29T10:31:23;95773.31;;;36.38;100.00
70745;BME280;59284;31.390;34.904;2022-12-29T10:33:53;95764.81;;;36.52;100.00
70745;BME280;59284;31.390;34.904;2022-12-29T10:36:35;95768.03;;;36.10;100.00
70745;BME280;59284;31.390;34.904;2022-12-29T10:39:28;95760.06;;;37.28;100.00
70745;BME280;59284;31.390;34.904;2022-12-29T10:44:43;95766.56;;;35.19;100.00
70745;BME280;59284;31.390;34.904;2022-12-29T10:47:18;95767.63;;;35.38;100.00
70745;BME280;59284;31.390;34.904;2022-12-29T10:49:47;95776.53;;;32.90;100.00
70745;BME280;59284;31.390;34.904;2022-12-29T10:52:15;95774.75;;;31.96;100.00
70745;BME280;59284;31.390;34.904;2022-12-29T10:59:42;95764.50;;;32.44;100.00
70745;BME280;59284;31.390;34.904;2022-12-29T11:04:42;95756.22;;;33.94;100.00
70745;BME280;59284;31.390;34.904;2022-12-29T11:07:12;95745.75;;;33.80;100.00
70745;BME280;59284;31.390;34.904;2022-12-29T11:09:39;95756.25;;;32.62;100.00
70745;BME280;59284;31.390;34.904;2022-12-29T11:12:26;95735.06;;;37.37;100.00
70745;BME280;59284;31.390;34.904;2022-12-29T11:17:48;95740.41;;;36.56;100.00
70745;BME280;59284;31.390;34.904;2022-12-29T11:20:33;95731.25;;;37.35;100.00
70745;BME280;59284;31.390;34.904;2022-12-29T11:23:01;95738.81;;;34.54;100.00
70745;BME280;59284;31.390;34.904;2022-12-29T11:25:27;95725.97;;;35.39;100.00
70745;BME280;59284;31.390;34.904;2022-12-29T11:28:02;95745.03;;;34.51;100.00
70745;BME280;59284;31.390;34.904;2022-12-29T11:30:31;95735.03;;;34.84;100.00
70745;BME280;59284;31.390;34.904;2022-12-29T11:32:57;95757.28;;;30.99;100.00
70745;BME280;59284;31.390;34.904;2022-12-29T11:35:49;95757.69;;;31.39;100.00
70745;BME280;59284;31.390;34.904;2022-12-29T11:38:21;95768.72;;;29.62;100.00
70745;BME280;59284;31.390;34.904;2022-12-29T11:40:49;95768.28;;;29.84;100.00
70745;BME280;59284;31.390;34.904;2022-12-29T11:43:36;95757.41;;;30.89;100.00
70745;BME280;59284;31.390;34.904;2022-12-29T11:46:04;95750.06;;;30.38;100.00
70745;BME280;59284;31.390;34.904;2022-12-29T11:48:40;95758.63;;;30.05;100.00
70745;BME280;59284;31.390;34.904;2022-12-29T11:51:07;95756.16;;;31.00;100.00
70745;BME280;59284;31.390;34.904;2022-12-29T11:56:04;95774.16;;;28.91;100.00
70745;BME280;59284;31.390;34.904;2022-12-29T11:58:36;95772.50;;;28.23;100.00
70745;BME280;59284;31.390;34.904;2022-12-29T12:01:27;95768.78;;;29.37;100.00
70745;BME280;59284;31.390;34.904;2022-12-29T12:04:04;95761.53;;;28.99;100.00
70745;BME280;59284;31.390;34.904;2022-12-29T12:06:36;95772.00;;;30.05;100.00
70745;BME280;59284;31.390;34.904;2022-12-29T12:09:14;95770.03;;;30.23;100.00
70745;BME280;59284;31.390;34.904;2022-12-29T12:11:42;95789.69;;;25.93;100.00
70745;BME280;59284;31.390;34.904;2022-12-29T12:14:23;95756.28;;;30.83;100.00
70745;BME280;59284;31.390;34.904;2022-12-29T12:16:55;95769.56;;;29.20;100.00
70745;BME280;59284;31.390;34.904;2022-12-29T12:19:43;95768.72;;;28.38;100.00
70745;BME280;59284;31.390;34.904;2022-12-29T12:25:19;95757.28;;;31.44;100.00
70745;BME280;59284;31.390;34.904;2022-12-29T12:27:51;95768.78;;;28.88;100.00
70745;BME280;59284;31.390;34.904;2022-12-29T12:30:20;95755.88;;;30.84;100.00
70745;BME280;59284;31.390;34.904;2022-12-29T12:32:54;95769.31;;;30.15;100.00
70745;BME280;59284;31.390;34.904;2022-12-29T12:38:32;95775.19;;;29.61;100.00
70745;BME280;59284;31.390;34.904;2022-12-29T12:41:50;95774.69;;;30.05;100.00
70745;BME280;59284;31.390;34.904;2022-12-29T12:44:33;95766.81;;;31.82;100.00
70745;BME280;59284;31.390;34.904;2022-12-29T12:53:17;95778.44;;;30.21;100.00
70745;BME280;59284;31.390;34.904;2022-12-29T12:58:43;95783.28;;;28.73;100.00
70745;BME280;59284;31.390;34.904;2022-12-29T13:03:48;95784.56;;;27.93;100.00
70745;BME280;59284;31.390;34.904;2022-12-29T13:22:52;95786.97;;;28.19;100.00
70745;BME280;59284;31.390;34.904;2022-12-29T13:25:35;95786.22;;;28.22;100.00
70745;BME280;59284;31.390;34.904;2022-12-29T13:33:37;95787.41;;;27.52;100.00
70745;BME280;59284;31.390;34.904;2022-12-29T13:36:33;95779.75;;;28.33;100.00
70745;BME280;59284;31.390;34.904;2022-12-29T13:41:59;95795.22;;;26.40;100.00
70745;BME280;59284;31.390;34.904;2022-12-29T13:44:43;95794.00;;;25.71;100.00
70745;BME280;59284;31.390;34.904;2022-12-29T13:50:19;95796.53;;;25.12;100.00
70745;BME280;59284;31.390;34.904;2022-12-29T13:55:53;95795.84;;;24.92;100.00
70745;BME280;59284;31.390;34.904;2022-12-29T14:04:11;95781.56;;;23.09;100.00
70745;BME280;59284;31.390;34.904;2022-12-29T14:06:39;95772.44;;;23.95;100.00
70745;BME280;59284;31.390;34.904;2022-12-29T14:09:40;95765.84;;;22.38;100.00
70745;BME280;59284;31.390;34.904;2022-12-29T14:14:48;95755.97;;;21.27;100.00
70745;BME280;59284;31.390;34.904;2022-12-29T14:17:19;95739.88;;;21.32;100.00
70745;BME280;59284;31.390;34.904;2022-12-29T14:19:46;95739.53;;;21.74;100.00
70745;BME280;59284;31.390;34.904;2022-12-29T14:22:28;95740.66;;;21.33;100.00
70745;BME280;59284;31.390;34.904;2022-12-29T14:24:54;95726.72;;;20.84;100.00
70745;BME280;59284;31.390;34.904;2022-12-29T14:29:48;95728.72;;;19.85;100.00
70745;BME280;59284;31.390;34.904;2022-12-29T14:34:46;95732.34;;;19.60;100.00
70745;BME280;59284;31.390;34.904;2022-12-29T14:37:41;95741.72;;;20.02;100.00
70745;BME280;59284;31.390;34.904;2022-12-29T14:42:46;95726.69;;;19.00;100.00
70745;BME280;59284;31.390;34.904;2022-12-29T14:47:40;95715.13;;;18.08;100.00
70745;BME280;59284;31.390;34.904;2022-12-29T15:04:13;95690.78;;;17.05;100.00
70745;BME280;59284;31.390;34.904;2022-12-29T15:06:40;95696.63;;;16.93;100.00
70745;BME280;59284;31.390;34.904;2022-12-29T15:09:30;95673.63;;;16.73;100.00
70745;BME280;59284;31.390;34.904;2022-12-29T15:14:53;95684.38;;;16.63;100.00
70745;BME280;59284;31.390;34.904;2022-12-29T15:17:33;95698.44;;;16.75;100.00
70745;BME280;59284;31.390;34.904;2022-12-29T15:20:16;95710.78;;;16.44;100.00
70745;BME280;59284;31.390;34.904;2022-12-29T15:23:21;95701.22;;;16.79;100.00
70745;BME280;59284;31.390;34.904;2022-12-29T15:25:56;95721.66;;;17.25;100.00
70745;BME280;59284;31.390;34.904;2022-12-29T15:28:23;95713.19;;;16.63;100.00
70745;BME280;59284;31.390;34.904;2022-12-29T15:30:55;95724.25;;;16.51;100.00
70745;BME280;59284;31.390;34.904;2022-12-29T15:33:23;95725.50;;;16.54;100.00
70745;BME280;59284;31.390;34.904;2022-12-29T15:35:53;95724.47;;;16.72;100.00
70745;BME280;59284;31.390;34.904;2022-12-29T15:38:29;95728.78;;;16.68;100.00
70745;BME280;59284;31.390;34.904;2022-12-29T15:41:02;95741.78;;;16.81;100.00
70745;BME280;59284;31.390;34.904;2022-12-29T15:46:32;95754.66;;;16.61;100.00
70745;BME280;59284;31.390;34.904;2022-12-29T15:48:58;95760.44;;;16.80;100.00
70745;BME280;59284;31.390;34.904;2022-12-29T15:51:35;95746.91;;;16.56;100.00
70745;BME280;59284;31.390;34.904;2022-12-29T15:54:01;95756.34;;;16.04;100.00
70745;BME280;59284;31.390;34.904;2022-12-29T15:56:32;95763.09;;;16.58;100.00
70745;BME280;59284;31.390;34.904;2022-12-29T15:58:59;95755.16;;;15.88;100.00
70745;BME280;59284;31.390;34.904;2022-12-29T16:01:36;95745.59;;;16.14;100.00
70745;BME280;59284;31.390;34.904;2022-12-29T16:04:07;95760.63;;;16.00;100.00
70745;BME280;59284;31.390;34.904;2022-12-29T16:06:38;95758.09;;;16.17;100.00
70745;BME280;59284;31.390;34.904;2022-12-29T16:09:10;95760.84;;;16.12;100.00
70745;BME280;59284;31.390;34.904;2022-12-29T16:12:06;95753.41;;;16.28;100.00